HBBA/BJM METAR and TAF weather

Enter ICAO airport designator
Station Type Date Time Source
HBBA METAR 2019/02/21 17:00 UTC NOAA

HBBA 211700Z 00000KT 9999 RA FEW025 BKN100 26/21 Q1011


Station Type Date Time Source
HBBA Decoded METAR 2019/02/21 17:00 UTC NOAA

Bujumbura, Burundi (HBBA) 03-19S 029-19E 783M
Feb 21, 2019 - 12:00 PM EST / 2019.02.21 1700 UTC
Wind: Calm:0
Visibility: greater than 7 mile(s):0
Sky conditions: mostly cloudy
Weather: rain
Pressure (altimeter): 29.85 in. Hg (1011 hPa)
ob: HBBA 211700Z 00000KT 9999 RA FEW025 BKN100 26/21 Q1011
cycle: 17

Station Type Date Time Source
HBBA TAF 2019/02/23 18:54 UTC NOAA

TAF TAF HBBA 231700Z 2318/2424 VRB03KT 9999 BKN100 PROB40
TEMPO2401/2403 08010KT 5000 FEW030CB SHRA OR TSRA BEMG2403/2405 36003KT 9999 SCT080
BECMG2408/2410 18010G25KT 9999 FEW030 BKN100 PROB40
TEMPO2412/2416 5000 FEW030CB SHRA OR TSRA


Example: see airport list